Gdf Suez North Sea — HPSQ — position and weather

sailwx.info

Track history (hours):
 
Tides and Currents Weather Stations Pressure Air Temp Water Temp Dewpoint Dewpoint Depression Visibility Wind Speed Wind Dir Waves Ship Positions

Gdf Suez North Sea

Last reported at 2017-Aug-05 02:16 UTC. Time now 2017-Aug-16 12:58 UTC.
Position N 27°49' W 016°26'.
Warning: this ship's position is 11 days out of date.

Length 190 m; draft 12.1 m.

Type: Cargo ship. MMSI: 373341000.

Date/timePositionNaut miles runAvg speedWind from/ knotsBaromVisibWave heightAir tempDewpointWater temp
2017-Aug-05 02:16N 27°49' W 016°26'412.8
2017-Aug-05 01:58N 27°53' W 016°24'713.0
2017-Aug-05 01:27N 27°59' W 016°22'713.2
2017-Aug-05 00:54N 28°05' W 016°17'613.4
2017-Aug-05 00:28N 28°09' W 016°12'713.2
2017-Aug-04 23:58N 28°14' W 016°08'613.0
2017-Aug-04 23:30N 28°19' W 016°03'712.5
2017-Aug-04 22:58N 28°24' W 015°58'612.2
2017-Aug-04 22:30N 28°28' W 015°54'612.2
2017-Aug-04 22:00N 28°33' W 015°50'612.0
2017-Aug-04 21:30N 28°38' W 015°46'611.9
2017-Aug-04 21:00N 28°43' W 015°44'612.0
2017-Aug-04 20:30N 28°49' W 015°42'612.0
2017-Aug-04 19:59N 28°55' W 015°40'612.0
2017-Aug-04 19:28N 29°01' W 015°38'1011.7
2017-Aug-04 18:36N 29°11' W 015°35'211.6
2017-Aug-04 18:28N 29°12' W 015°34'611.7
2017-Aug-04 17:57N 29°18' W 015°32'511.8
2017-Aug-04 17:30N 29°23' W 015°30'612.0
2017-Aug-04 17:00N 29°29' W 015°28'612.0
2017-Aug-04 16:30N 29°35' W 015°26'612.0
2017-Aug-04 15:59N 29°40' W 015°24'611.9
2017-Aug-04 15:30N 29°46' W 015°21'611.7
2017-Aug-04 15:00N 29°51' W 015°19'1212.1
2017-Aug-04 14:00N 30°03' W 015°14'53411.9
2017-Aug-02 17:07N 38°31' W 011°56'312.2
2017-Aug-02 16:53N 38°33' W 011°55'512.3
2017-Aug-02 16:30N 38°38' W 011°53'712.0
2017-Aug-02 15:55N 38°45' W 011°51'511.9
2017-Aug-02 15:30N 38°49' W 011°49'612.1
2017-Aug-02 15:00N 38°55' W 011°46'2112.2
2017-Aug-02 13:15N 39°15' W 011°38'412.1
2017-Aug-02 12:56N 39°19' W 011°36'512.0
2017-Aug-02 12:29N 39°24' W 011°34'712.2
2017-Aug-02 11:56N 39°31' W 011°31'512.0
2017-Aug-02 11:30N 39°36' W 011°29'2812.1
2017-Aug-02 09:11N 40°02' W 011°18'  
2017-Jul-29 15:02N 53°04' E 003°19'112.4
2017-Jul-29 15:00N 53°04' E 003°20'36410.7
2017-Jul-28 05:02N 57°48' E 010°01'110.7
2017-Jul-28 04:55N 57°48' E 010°03'510.3
2017-Jul-28 04:25N 57°48' E 010°13'610.6
2017-Jul-28 03:49N 57°49' E 010°25'310.6
2017-Jul-28 03:30N 57°49' E 010°31'610.8
2017-Jul-28 02:57N 57°49' E 010°42'510.9
2017-Jul-28 02:30N 57°47' E 010°50'611.7
2017-Jul-28 02:00N 57°43' E 010°58'712.2
2017-Jul-28 01:28N 57°38' E 011°07'612.2
2017-Jul-28 01:00N 57°34' E 011°14'612.0
2017-Jul-28 00:30N 57°30' E 011°23'611.3
2017-Jul-28 00:00N 57°26' E 011°29'611.5
2017-Jul-27 23:30N 57°20' E 011°32'611.8
2017-Jul-27 23:00N 57°14' E 011°35'611.7
2017-Jul-27 22:30N 57°09' E 011°38'611.4
2017-Jul-27 21:58N 57°03' E 011°42'611.0
2017-Jul-27 21:26N 56°58' E 011°46'510.9
2017-Jul-27 21:00N 56°53' E 011°49'610.8
2017-Jul-27 20:28N 56°48' E 011°52'5 9.9
2017-Jul-27 19:59N 56°43' E 011°51'2011.9
2017-Jul-27 18:20N 56°26' E 011°33'511.9
2017-Jul-27 17:56N 56°22' E 011°29'511.9
2017-Jul-27 17:30N 56°17' E 011°25'612.3
2017-Jul-27 16:59N 56°12' E 011°18'612.2
2017-Jul-27 16:29N 56°08' E 011°11'611.7
2017-Jul-27 15:59N 56°02' E 011°07'510.2
2017-Jul-27 15:29N 55°58' E 011°02'612.2
2017-Jul-27 15:00N 55°54' E 010°55'1211.5
2017-Jul-27 14:00N 55°43' E 010°48'611.6
2017-Jul-27 13:29N 55°37' E 010°48'612.1
2017-Jul-27 12:59N 55°31' E 010°52'611.3
2017-Jul-27 12:29N 55°26' E 010°57'611.6
2017-Jul-27 11:59N 55°21' E 011°02'811.9
2017-Jul-27 11:21N 55°14' E 011°06'410.9
2017-Jul-27 11:00N 55°11' E 011°03'611.7
2017-Jul-27 10:28N 55°05' E 010°59'612.4
2017-Jul-27 10:00N 54°59' E 010°59'612.8
2017-Jul-27 09:30N 54°54' E 010°51'612.9
2017-Jul-27 09:00N 54°48' E 010°50'611.5
2017-Jul-27 08:30N 54°42' E 010°47'4 8.1
2017-Jul-27 08:00N 54°39' E 010°52'611.1
2017-Jul-27 07:30N 54°36' E 011°00'511.1
2017-Jul-27 07:00N 54°36' E 011°09'611.8
2017-Jul-27 06:30N 54°34' E 011°19'611.9
2017-Jul-27 06:00N 54°31' E 011°28'611.8
2017-Jul-27 05:30N 54°29' E 011°37'611.4
2017-Jul-27 05:00N 54°27' E 011°47'511.1
2017-Jul-27 04:30N 54°27' E 011°56'611.4
2017-Jul-27 03:59N 54°27' E 012°06'5 9.9
2017-Jul-27 03:29N 54°30' E 012°13'511.4
2017-Jul-27 03:00N 54°35' E 012°16'2310.5
2017-Jul-27 00:51N 54°49' E 012°47'5 9.1
2017-Jul-27 00:17N 54°50' E 012°56'411.9
2017-Jul-26 23:57N 54°52' E 013°02'512.0
2017-Jul-26 23:30N 54°53' E 013°11'612.0
2017-Jul-26 23:00N 54°55' E 013°21'612.1
2017-Jul-26 22:30N 54°57' E 013°31'612.0
2017-Jul-26 22:00N 54°59' E 013°41'611.9
2017-Jul-26 21:30N 55°01' E 013°51'611.9
2017-Jul-26 21:00N 55°03' E 014°00'611.5
2017-Jul-26 20:30N 55°07' E 014°08'612.1
2017-Jul-26 20:00N 55°12' E 014°15'612.1
2017-Jul-26 19:30N 55°16' E 014°21'612.0
2017-Jul-26 19:00N 55°21' E 014°27'612.2
2017-Jul-26 18:30N 55°26' E 014°34'611.9
2017-Jul-26 18:00N 55°29' E 014°43'611.8
2017-Jul-26 17:30N 55°32' E 014°52'612.1
2017-Jul-26 17:00N 55°35' E 015°02'612.4
2017-Jul-26 16:30N 55°37' E 015°12'612.6
2017-Jul-26 16:00N 55°39' E 015°22'612.3
2017-Jul-26 15:30N 55°40' E 015°33'612.2
2017-Jul-26 15:00N 55°42' E 015°43'1212.2
2017-Jul-26 14:00N 55°45' E 016°04'612.2
2017-Jul-26 13:30N 55°46' E 016°15'612.0
2017-Jul-26 13:00N 55°48' E 016°25'612.1
2017-Jul-26 12:30N 55°49' E 016°36'612.1
2017-Jul-26 12:00N 55°51' E 016°46'612.1
2017-Jul-26 11:29N 55°53' E 016°57'1211.8
2017-Jul-26 10:29N 55°55' E 017°17'611.6
2017-Jul-26 10:00N 55°57' E 017°27'711.7
2017-Jul-26 09:26N 55°59' E 017°39'511.5
2017-Jul-26 09:00N 56°01' E 017°47'911.7
2017-Jul-26 08:14N 56°05' E 017°60'511.7
2017-Jul-26 07:50N 56°08' E 018°07'911.7
2017-Jul-26 07:02N 56°13' E 018°21'1411.6
2017-Jul-26 05:51N 56°21' E 018°42'1111.4
2017-Jul-26 04:51N 56°31' E 018°52'511.5
2017-Jul-26 04:27N 56°34' E 018°57'711.5
2017-Jul-26 03:50N 56°40' E 019°04'611.5
2017-Jul-26 03:18N 56°46' E 019°09'411.5
2017-Jul-26 02:59N 56°49' E 019°12'611.5
2017-Jul-26 02:30N 56°54' E 019°17'  
Track history (hours):
 
Tides and Currents Weather Stations Pressure Air Temp Water Temp Dewpoint Dewpoint Depression Visibility Wind Speed Wind Dir Waves Ship Positions

Gdf Suez North Sea

Last reported at 2017-Aug-05 02:16 UTC. Time now 2017-Aug-16 12:58 UTC.
Position N 27°49' W 016°26'.
Warning: this ship's position is 11 days out of date.

Length 190 m; draft 12.1 m.

Type: Cargo ship. MMSI: 373341000.

Date/timePositionNaut miles runAvg speedWind from/ knotsBaromVisibWave heightAir tempDewpointWater temp
2017-Aug-05 02:16N 27°49' W 016°26'412.8
2017-Aug-05 01:58N 27°53' W 016°24'713.0
2017-Aug-05 01:27N 27°59' W 016°22'713.2
2017-Aug-05 00:54N 28°05' W 016°17'613.4
2017-Aug-05 00:28N 28°09' W 016°12'713.2
2017-Aug-04 23:58N 28°14' W 016°08'613.0
2017-Aug-04 23:30N 28°19' W 016°03'712.5
2017-Aug-04 22:58N 28°24' W 015°58'612.2
2017-Aug-04 22:30N 28°28' W 015°54'612.2
2017-Aug-04 22:00N 28°33' W 015°50'612.0
2017-Aug-04 21:30N 28°38' W 015°46'611.9
2017-Aug-04 21:00N 28°43' W 015°44'612.0
2017-Aug-04 20:30N 28°49' W 015°42'612.0
2017-Aug-04 19:59N 28°55' W 015°40'612.0
2017-Aug-04 19:28N 29°01' W 015°38'1011.7
2017-Aug-04 18:36N 29°11' W 015°35'211.6
2017-Aug-04 18:28N 29°12' W 015°34'611.7
2017-Aug-04 17:57N 29°18' W 015°32'511.8
2017-Aug-04 17:30N 29°23' W 015°30'612.0
2017-Aug-04 17:00N 29°29' W 015°28'612.0
2017-Aug-04 16:30N 29°35' W 015°26'612.0
2017-Aug-04 15:59N 29°40' W 015°24'611.9
2017-Aug-04 15:30N 29°46' W 015°21'611.7
2017-Aug-04 15:00N 29°51' W 015°19'1212.1
2017-Aug-04 14:00N 30°03' W 015°14'53411.9
2017-Aug-02 17:07N 38°31' W 011°56'312.2
2017-Aug-02 16:53N 38°33' W 011°55'512.3
2017-Aug-02 16:30N 38°38' W 011°53'712.0
2017-Aug-02 15:55N 38°45' W 011°51'511.9
2017-Aug-02 15:30N 38°49' W 011°49'612.1
2017-Aug-02 15:00N 38°55' W 011°46'2112.2
2017-Aug-02 13:15N 39°15' W 011°38'412.1
2017-Aug-02 12:56N 39°19' W 011°36'512.0
2017-Aug-02 12:29N 39°24' W 011°34'712.2
2017-Aug-02 11:56N 39°31' W 011°31'512.0
2017-Aug-02 11:30N 39°36' W 011°29'2812.1
2017-Aug-02 09:11N 40°02' W 011°18'  
2017-Jul-29 15:02N 53°04' E 003°19'112.4
2017-Jul-29 15:00N 53°04' E 003°20'36410.7
2017-Jul-28 05:02N 57°48' E 010°01'110.7
2017-Jul-28 04:55N 57°48' E 010°03'510.3
2017-Jul-28 04:25N 57°48' E 010°13'610.6
2017-Jul-28 03:49N 57°49' E 010°25'310.6
2017-Jul-28 03:30N 57°49' E 010°31'610.8
2017-Jul-28 02:57N 57°49' E 010°42'510.9
2017-Jul-28 02:30N 57°47' E 010°50'611.7
2017-Jul-28 02:00N 57°43' E 010°58'712.2
2017-Jul-28 01:28N 57°38' E 011°07'612.2
2017-Jul-28 01:00N 57°34' E 011°14'612.0
2017-Jul-28 00:30N 57°30' E 011°23'611.3
2017-Jul-28 00:00N 57°26' E 011°29'611.5
2017-Jul-27 23:30N 57°20' E 011°32'611.8
2017-Jul-27 23:00N 57°14' E 011°35'611.7
2017-Jul-27 22:30N 57°09' E 011°38'611.4
2017-Jul-27 21:58N 57°03' E 011°42'611.0
2017-Jul-27 21:26N 56°58' E 011°46'510.9
2017-Jul-27 21:00N 56°53' E 011°49'610.8
2017-Jul-27 20:28N 56°48' E 011°52'5 9.9
2017-Jul-27 19:59N 56°43' E 011°51'2011.9
2017-Jul-27 18:20N 56°26' E 011°33'511.9
2017-Jul-27 17:56N 56°22' E 011°29'511.9
2017-Jul-27 17:30N 56°17' E 011°25'612.3
2017-Jul-27 16:59N 56°12' E 011°18'612.2
2017-Jul-27 16:29N 56°08' E 011°11'611.7
2017-Jul-27 15:59N 56°02' E 011°07'510.2
2017-Jul-27 15:29N 55°58' E 011°02'612.2
2017-Jul-27 15:00N 55°54' E 010°55'1211.5
2017-Jul-27 14:00N 55°43' E 010°48'611.6
2017-Jul-27 13:29N 55°37' E 010°48'612.1
2017-Jul-27 12:59N 55°31' E 010°52'611.3
2017-Jul-27 12:29N 55°26' E 010°57'611.6
2017-Jul-27 11:59N 55°21' E 011°02'811.9
2017-Jul-27 11:21N 55°14' E 011°06'410.9
2017-Jul-27 11:00N 55°11' E 011°03'611.7
2017-Jul-27 10:28N 55°05' E 010°59'612.4
2017-Jul-27 10:00N 54°59' E 010°59'612.8
2017-Jul-27 09:30N 54°54' E 010°51'612.9
2017-Jul-27 09:00N 54°48' E 010°50'611.5
2017-Jul-27 08:30N 54°42' E 010°47'4 8.1
2017-Jul-27 08:00N 54°39' E 010°52'611.1
2017-Jul-27 07:30N 54°36' E 011°00'511.1
2017-Jul-27 07:00N 54°36' E 011°09'611.8
2017-Jul-27 06:30N 54°34' E 011°19'611.9
2017-Jul-27 06:00N 54°31' E 011°28'611.8
2017-Jul-27 05:30N 54°29' E 011°37'611.4
2017-Jul-27 05:00N 54°27' E 011°47'511.1
2017-Jul-27 04:30N 54°27' E 011°56'611.4
2017-Jul-27 03:59N 54°27' E 012°06'5 9.9
2017-Jul-27 03:29N 54°30' E 012°13'511.4
2017-Jul-27 03:00N 54°35' E 012°16'2310.5
2017-Jul-27 00:51N 54°49' E 012°47'5 9.1
2017-Jul-27 00:17N 54°50' E 012°56'411.9
2017-Jul-26 23:57N 54°52' E 013°02'512.0
2017-Jul-26 23:30N 54°53' E 013°11'612.0
2017-Jul-26 23:00N 54°55' E 013°21'612.1
2017-Jul-26 22:30N 54°57' E 013°31'612.0
2017-Jul-26 22:00N 54°59' E 013°41'611.9
2017-Jul-26 21:30N 55°01' E 013°51'611.9
2017-Jul-26 21:00N 55°03' E 014°00'611.5
2017-Jul-26 20:30N 55°07' E 014°08'612.1
2017-Jul-26 20:00N 55°12' E 014°15'612.1
2017-Jul-26 19:30N 55°16' E 014°21'612.0
2017-Jul-26 19:00N 55°21' E 014°27'612.2
2017-Jul-26 18:30N 55°26' E 014°34'611.9
2017-Jul-26 18:00N 55°29' E 014°43'611.8
2017-Jul-26 17:30N 55°32' E 014°52'612.1
2017-Jul-26 17:00N 55°35' E 015°02'612.4
2017-Jul-26 16:30N 55°37' E 015°12'612.6
2017-Jul-26 16:00N 55°39' E 015°22'612.3
2017-Jul-26 15:30N 55°40' E 015°33'612.2
2017-Jul-26 15:00N 55°42' E 015°43'1212.2
2017-Jul-26 14:00N 55°45' E 016°04'612.2
2017-Jul-26 13:30N 55°46' E 016°15'612.0
2017-Jul-26 13:00N 55°48' E 016°25'612.1
2017-Jul-26 12:30N 55°49' E 016°36'612.1
2017-Jul-26 12:00N 55°51' E 016°46'612.1
2017-Jul-26 11:29N 55°53' E 016°57'1211.8
2017-Jul-26 10:29N 55°55' E 017°17'611.6
2017-Jul-26 10:00N 55°57' E 017°27'711.7
2017-Jul-26 09:26N 55°59' E 017°39'511.5
2017-Jul-26 09:00N 56°01' E 017°47'911.7
2017-Jul-26 08:14N 56°05' E 017°60'511.7
2017-Jul-26 07:50N 56°08' E 018°07'911.7
2017-Jul-26 07:02N 56°13' E 018°21'1411.6
2017-Jul-26 05:51N 56°21' E 018°42'1111.4
2017-Jul-26 04:51N 56°31' E 018°52'511.5
2017-Jul-26 04:27N 56°34' E 018°57'711.5
2017-Jul-26 03:50N 56°40' E 019°04'611.5
2017-Jul-26 03:18N 56°46' E 019°09'411.5
2017-Jul-26 02:59N 56°49' E 019°12'611.5
2017-Jul-26 02:30N 56°54' E 019°17'  

Dump ship's entire track history